sensor_id;sensor_type;location;lat;lon;timestamp;temperature;humidity
21246;DHT22;10781;50.928;4.440;2023-04-03T00:01:12;4.50;99.90
21246;DHT22;10781;50.928;4.440;2023-04-03T00:03:37;4.50;99.90
21246;DHT22;10781;50.928;4.440;2023-04-03T00:06:04;4.50;99.90
21246;DHT22;10781;50.928;4.440;2023-04-03T00:08:32;4.40;99.90
21246;DHT22;10781;50.928;4.440;2023-04-03T00:10:58;4.50;99.90
21246;DHT22;10781;50.928;4.440;2023-04-03T00:13:24;4.80;99.90
21246;DHT22;10781;50.928;4.440;2023-04-03T00:15:50;5.00;99.90
21246;DHT22;10781;50.928;4.440;2023-04-03T00:18:16;4.80;99.90
21246;DHT22;10781;50.928;4.440;2023-04-03T00:20:41;4.60;99.90
21246;DHT22;10781;50.928;4.440;2023-04-03T00:23:07;4.50;99.90
21246;DHT22;10781;50.928;4.440;2023-04-03T00:25:33;4.30;99.90
21246;DHT22;10781;50.928;4.440;2023-04-03T00:27:59;4.30;99.90
21246;DHT22;10781;50.928;4.440;2023-04-03T00:30:25;4.20;99.90
21246;DHT22;10781;50.928;4.440;2023-04-03T00:32:52;4.30;99.90
21246;DHT22;10781;50.928;4.440;2023-04-03T00:35:19;4.20;99.90
21246;DHT22;10781;50.928;4.440;2023-04-03T00:37:45;4.20;99.90
21246;DHT22;10781;50.928;4.440;2023-04-03T00:40:13;4.20;99.90
21246;DHT22;10781;50.928;4.440;2023-04-03T00:42:41;4.30;99.90
21246;DHT22;10781;50.928;4.440;2023-04-03T00:45:37;4.20;99.90
21246;DHT22;10781;50.928;4.440;2023-04-03T00:48:05;4.10;99.90
21246;DHT22;10781;50.928;4.440;2023-04-03T00:50:33;4.20;99.90
21246;DHT22;10781;50.928;4.440;2023-04-03T00:53:00;4.20;99.90
21246;DHT22;10781;50.928;4.440;2023-04-03T00:55:26;4.30;99.90
21246;DHT22;10781;50.928;4.440;2023-04-03T00:57:53;4.30;99.90
21246;DHT22;10781;50.928;4.440;2023-04-03T01:00:21;4.20;99.90
21246;DHT22;10781;50.928;4.440;2023-04-03T01:02:48;4.20;99.90
21246;DHT22;10781;50.928;4.440;2023-04-03T01:05:16;4.40;99.90
21246;DHT22;10781;50.928;4.440;2023-04-03T01:07:42;4.50;99.90
21246;DHT22;10781;50.928;4.440;2023-04-03T01:10:11;4.40;99.90
21246;DHT22;10781;50.928;4.440;2023-04-03T01:12:40;4.20;99.90
21246;DHT22;10781;50.928;4.440;2023-04-03T01:15:13;4.20;99.90
21246;DHT22;10781;50.928;4.440;2023-04-03T01:17:41;4.30;99.90
21246;DHT22;10781;50.928;4.440;2023-04-03T01:22:43;4.50;99.90
21246;DHT22;10781;50.928;4.440;2023-04-03T01:25:15;4.50;99.90
21246;DHT22;10781;50.928;4.440;2023-04-03T01:27:41;4.20;99.90
21246;DHT22;10781;50.928;4.440;2023-04-03T01:30:07;4.20;99.90
21246;DHT22;10781;50.928;4.440;2023-04-03T01:32:33;4.20;99.90
21246;DHT22;10781;50.928;4.440;2023-04-03T01:34:59;4.10;99.90
21246;DHT22;10781;50.928;4.440;2023-04-03T01:37:24;4.00;99.90
21246;DHT22;10781;50.928;4.440;2023-04-03T01:39:50;4.00;99.90
21246;DHT22;10781;50.928;4.440;2023-04-03T01:42:16;4.00;99.90
21246;DHT22;10781;50.928;4.440;2023-04-03T01:44:41;4.10;99.90
21246;DHT22;10781;50.928;4.440;2023-04-03T01:47:07;4.00;99.90
21246;DHT22;10781;50.928;4.440;2023-04-03T01:49:33;4.00;99.90
21246;DHT22;10781;50.928;4.440;2023-04-03T01:51:58;4.00;99.90
21246;DHT22;10781;50.928;4.440;2023-04-03T01:54:24;3.80;99.90
21246;DHT22;10781;50.928;4.440;2023-04-03T01:56:50;3.80;99.90
21246;DHT22;10781;50.928;4.440;2023-04-03T01:59:16;3.70;99.90
21246;DHT22;10781;50.928;4.440;2023-04-03T02:01:43;3.80;99.90
21246;DHT22;10781;50.928;4.440;2023-04-03T02:04:11;3.90;99.90
21246;DHT22;10781;50.928;4.440;2023-04-03T02:06:37;4.00;99.90
21246;DHT22;10781;50.928;4.440;2023-04-03T02:09:03;3.90;99.90
21246;DHT22;10781;50.928;4.440;2023-04-03T02:11:30;3.90;99.90
21246;DHT22;10781;50.928;4.440;2023-04-03T02:13:55;3.70;99.90
21246;DHT22;10781;50.928;4.440;2023-04-03T02:16:21;3.60;99.90
21246;DHT22;10781;50.928;4.440;2023-04-03T02:18:47;3.50;99.90
21246;DHT22;10781;50.928;4.440;2023-04-03T02:21:12;3.50;99.90
21246;DHT22;10781;50.928;4.440;2023-04-03T02:23:38;3.60;99.90
21246;DHT22;10781;50.928;4.440;2023-04-03T02:26:09;3.60;99.90
21246;DHT22;10781;50.928;4.440;2023-04-03T02:28:36;3.60;99.90
21246;DHT22;10781;50.928;4.440;2023-04-03T02:31:03;3.70;99.90
21246;DHT22;10781;50.928;4.440;2023-04-03T02:33:30;3.90;99.90
21246;DHT22;10781;50.928;4.440;2023-04-03T02:35:56;4.00;99.90
21246;DHT22;10781;50.928;4.440;2023-04-03T02:38:23;4.30;99.90
21246;DHT22;10781;50.928;4.440;2023-04-03T02:40:49;4.30;99.90
21246;DHT22;10781;50.928;4.440;2023-04-03T02:43:15;3.90;99.90
21246;DHT22;10781;50.928;4.440;2023-04-03T02:45:40;3.90;99.90
21246;DHT22;10781;50.928;4.440;2023-04-03T02:48:06;3.90;99.90
21246;DHT22;10781;50.928;4.440;2023-04-03T02:50:32;3.80;99.90
21246;DHT22;10781;50.928;4.440;2023-04-03T02:52:57;3.60;99.90
21246;DHT22;10781;50.928;4.440;2023-04-03T02:55:23;3.60;99.90
21246;DHT22;10781;50.928;4.440;2023-04-03T02:57:49;3.50;99.90
21246;DHT22;10781;50.928;4.440;2023-04-03T03:00:14;3.50;99.90
21246;DHT22;10781;50.928;4.440;2023-04-03T03:02:40;3.50;99.90
21246;DHT22;10781;50.928;4.440;2023-04-03T03:05:06;3.50;99.90
21246;DHT22;10781;50.928;4.440;2023-04-03T03:07:32;3.60;99.90
21246;DHT22;10781;50.928;4.440;2023-04-03T03:09:58;3.50;99.90
21246;DHT22;10781;50.928;4.440;2023-04-03T03:12:24;3.40;99.90
21246;DHT22;10781;50.928;4.440;2023-04-03T03:14:50;3.40;99.90
21246;DHT22;10781;50.928;4.440;2023-04-03T03:17:16;3.60;99.90
21246;DHT22;10781;50.928;4.440;2023-04-03T03:19:42;3.50;99.90
21246;DHT22;10781;50.928;4.440;2023-04-03T03:22:08;3.60;99.90
21246;DHT22;10781;50.928;4.440;2023-04-03T03:24:33;3.70;99.90
21246;DHT22;10781;50.928;4.440;2023-04-03T03:26:59;3.60;99.90
21246;DHT22;10781;50.928;4.440;2023-04-03T03:29:25;3.50;99.90
21246;DHT22;10781;50.928;4.440;2023-04-03T03:31:51;3.50;99.90
21246;DHT22;10781;50.928;4.440;2023-04-03T03:34:17;3.60;99.90
21246;DHT22;10781;50.928;4.440;2023-04-03T03:36:43;3.90;99.90
21246;DHT22;10781;50.928;4.440;2023-04-03T03:39:08;3.90;99.90
21246;DHT22;10781;50.928;4.440;2023-04-03T03:41:34;4.00;99.90
21246;DHT22;10781;50.928;4.440;2023-04-03T03:44:00;4.10;99.90
21246;DHT22;10781;50.928;4.440;2023-04-03T03:46:26;4.00;99.90
21246;DHT22;10781;50.928;4.440;2023-04-03T03:48:51;4.20;99.90
21246;DHT22;10781;50.928;4.440;2023-04-03T03:51:17;4.40;99.90
21246;DHT22;10781;50.928;4.440;2023-04-03T03:53:43;4.30;99.90
21246;DHT22;10781;50.928;4.440;2023-04-03T03:56:08;4.40;99.90
21246;DHT22;10781;50.928;4.440;2023-04-03T03:58:35;4.40;99.90
21246;DHT22;10781;50.928;4.440;2023-04-03T04:01:02;4.40;99.90
21246;DHT22;10781;50.928;4.440;2023-04-03T04:03:28;4.50;99.90
21246;DHT22;10781;50.928;4.440;2023-04-03T04:05:53;4.20;99.90
21246;DHT22;10781;50.928;4.440;2023-04-03T04:08:19;4.10;99.90
21246;DHT22;10781;50.928;4.440;2023-04-03T04:10:45;3.90;99.90
21246;DHT22;10781;50.928;4.440;2023-04-03T04:13:10;3.80;99.90
21246;DHT22;10781;50.928;4.440;2023-04-03T04:15:36;3.70;99.90
21246;DHT22;10781;50.928;4.440;2023-04-03T04:18:02;3.60;99.90
21246;DHT22;10781;50.928;4.440;2023-04-03T04:20:27;3.70;99.90
21246;DHT22;10781;50.928;4.440;2023-04-03T04:22:53;3.80;99.90
21246;DHT22;10781;50.928;4.440;2023-04-03T04:25:18;3.90;99.90
21246;DHT22;10781;50.928;4.440;2023-04-03T04:27:44;3.70;99.90
21246;DHT22;10781;50.928;4.440;2023-04-03T04:30:10;3.70;99.90
21246;DHT22;10781;50.928;4.440;2023-04-03T04:32:36;3.90;99.90
21246;DHT22;10781;50.928;4.440;2023-04-03T04:35:03;4.10;99.90
21246;DHT22;10781;50.928;4.440;2023-04-03T04:37:29;4.10;99.90
21246;DHT22;10781;50.928;4.440;2023-04-03T04:39:55;3.80;99.90
21246;DHT22;10781;50.928;4.440;2023-04-03T04:42:21;3.70;99.90
21246;DHT22;10781;50.928;4.440;2023-04-03T04:44:47;3.70;99.90
21246;DHT22;10781;50.928;4.440;2023-04-03T04:47:12;3.80;99.90
21246;DHT22;10781;50.928;4.440;2023-04-03T04:49:38;3.90;99.90
21246;DHT22;10781;50.928;4.440;2023-04-03T04:52:04;3.60;99.90
21246;DHT22;10781;50.928;4.440;2023-04-03T04:54:29;3.60;99.90
21246;DHT22;10781;50.928;4.440;2023-04-03T04:56:55;3.70;99.90
21246;DHT22;10781;50.928;4.440;2023-04-03T04:59:21;3.80;99.90
21246;DHT22;10781;50.928;4.440;2023-04-03T05:01:46;3.90;99.90
21246;DHT22;10781;50.928;4.440;2023-04-03T05:04:12;4.00;99.90
21246;DHT22;10781;50.928;4.440;2023-04-03T05:06:38;3.90;99.90
21246;DHT22;10781;50.928;4.440;2023-04-03T05:09:04;4.00;99.90
21246;DHT22;10781;50.928;4.440;2023-04-03T05:11:30;3.90;99.90
21246;DHT22;10781;50.928;4.440;2023-04-03T05:13:55;3.80;99.90
21246;DHT22;10781;50.928;4.440;2023-04-03T05:16:21;3.80;99.90
21246;DHT22;10781;50.928;4.440;2023-04-03T05:18:47;3.70;99.90
21246;DHT22;10781;50.928;4.440;2023-04-03T05:21:12;3.80;99.90
21246;DHT22;10781;50.928;4.440;2023-04-03T05:23:38;3.90;99.90
21246;DHT22;10781;50.928;4.440;2023-04-03T05:26:04;3.90;99.90
21246;DHT22;10781;50.928;4.440;2023-04-03T05:28:30;3.70;99.90
21246;DHT22;10781;50.928;4.440;2023-04-03T05:30:59;3.60;99.90
21246;DHT22;10781;50.928;4.440;2023-04-03T05:33:25;3.70;99.90
21246;DHT22;10781;50.928;4.440;2023-04-03T05:35:52;3.60;99.90
21246;DHT22;10781;50.928;4.440;2023-04-03T05:38:18;3.60;99.90
21246;DHT22;10781;50.928;4.440;2023-04-03T05:40:44;3.60;99.90
21246;DHT22;10781;50.928;4.440;2023-04-03T05:43:09;3.80;99.90
21246;DHT22;10781;50.928;4.440;2023-04-03T05:45:35;3.80;99.90
21246;DHT22;10781;50.928;4.440;2023-04-03T05:48:01;3.70;99.90
21246;DHT22;10781;50.928;4.440;2023-04-03T05:50:27;3.60;99.90
21246;DHT22;10781;50.928;4.440;2023-04-03T05:52:56;3.60;99.90
21246;DHT22;10781;50.928;4.440;2023-04-03T05:55:22;3.50;99.90
21246;DHT22;10781;50.928;4.440;2023-04-03T05:57:48;3.40;99.90
21246;DHT22;10781;50.928;4.440;2023-04-03T06:00:14;3.30;99.90
21246;DHT22;10781;50.928;4.440;2023-04-03T06:02:43;3.30;99.90
21246;DHT22;10781;50.928;4.440;2023-04-03T06:05:09;3.50;99.90
21246;DHT22;10781;50.928;4.440;2023-04-03T06:07:37;3.60;99.90
21246;DHT22;10781;50.928;4.440;2023-04-03T06:10:03;3.60;99.90
21246;DHT22;10781;50.928;4.440;2023-04-03T06:12:29;3.60;99.90
21246;DHT22;10781;50.928;4.440;2023-04-03T06:14:55;3.50;99.90
21246;DHT22;10781;50.928;4.440;2023-04-03T06:17:20;3.60;99.90
21246;DHT22;10781;50.928;4.440;2023-04-03T06:19:46;3.80;99.90
21246;DHT22;10781;50.928;4.440;2023-04-03T06:22:12;4.00;99.90
21246;DHT22;10781;50.928;4.440;2023-04-03T06:24:38;4.70;99.90
21246;DHT22;10781;50.928;4.440;2023-04-03T06:27:04;6.00;99.90
21246;DHT22;10781;50.928;4.440;2023-04-03T06:29:30;7.10;99.90
21246;DHT22;10781;50.928;4.440;2023-04-03T06:31:56;8.00;99.90
21246;DHT22;10781;50.928;4.440;2023-04-03T06:34:22;9.10;99.90
21246;DHT22;10781;50.928;4.440;2023-04-03T06:36:47;9.80;99.90
21246;DHT22;10781;50.928;4.440;2023-04-03T06:39:23;10.30;99.90
21246;DHT22;10781;50.928;4.440;2023-04-03T06:41:49;10.60;99.90
21246;DHT22;10781;50.928;4.440;2023-04-03T06:44:16;10.50;99.90
21246;DHT22;10781;50.928;4.440;2023-04-03T06:46:42;10.50;99.90
21246;DHT22;10781;50.928;4.440;2023-04-03T06:49:09;10.50;99.90
21246;DHT22;10781;50.928;4.440;2023-04-03T06:51:35;11.20;99.90
21246;DHT22;10781;50.928;4.440;2023-04-03T06:54:02;11.00;99.90
21246;DHT22;10781;50.928;4.440;2023-04-03T06:56:28;11.20;99.90
21246;DHT22;10781;50.928;4.440;2023-04-03T06:58:55;11.10;99.90
21246;DHT22;10781;50.928;4.440;2023-04-03T07:01:23;11.40;99.90
21246;DHT22;10781;50.928;4.440;2023-04-03T07:03:50;12.10;99.90
21246;DHT22;10781;50.928;4.440;2023-04-03T07:06:16;12.30;99.90
21246;DHT22;10781;50.928;4.440;2023-04-03T07:08:43;13.10;99.90
21246;DHT22;10781;50.928;4.440;2023-04-03T07:11:09;13.70;99.90
21246;DHT22;10781;50.928;4.440;2023-04-03T07:13:36;13.80;99.90
21246;DHT22;10781;50.928;4.440;2023-04-03T07:16:02;14.50;99.90
21246;DHT22;10781;50.928;4.440;2023-04-03T07:18:29;14.20;99.90
21246;DHT22;10781;50.928;4.440;2023-04-03T07:20:55;14.00;99.90
21246;DHT22;10781;50.928;4.440;2023-04-03T07:23:21;14.00;99.90
21246;DHT22;10781;50.928;4.440;2023-04-03T07:25:48;14.10;99.90
21246;DHT22;10781;50.928;4.440;2023-04-03T07:28:15;14.30;99.90
21246;DHT22;10781;50.928;4.440;2023-04-03T07:30:49;13.90;99.90
21246;DHT22;10781;50.928;4.440;2023-04-03T07:33:16;14.40;99.90
21246;DHT22;10781;50.928;4.440;2023-04-03T07:35:43;15.20;99.90
21246;DHT22;10781;50.928;4.440;2023-04-03T07:38:09;15.90;99.90
21246;DHT22;10781;50.928;4.440;2023-04-03T07:40:36;16.20;99.90
21246;DHT22;10781;50.928;4.440;2023-04-03T07:43:03;17.20;99.90
21246;DHT22;10781;50.928;4.440;2023-04-03T07:45:29;16.80;99.90
21246;DHT22;10781;50.928;4.440;2023-04-03T07:47:55;17.40;99.90
21246;DHT22;10781;50.928;4.440;2023-04-03T07:50:21;17.50;99.90
21246;DHT22;10781;50.928;4.440;2023-04-03T07:52:47;17.10;99.90
21246;DHT22;10781;50.928;4.440;2023-04-03T07:55:13;17.60;99.90
21246;DHT22;10781;50.928;4.440;2023-04-03T07:57:39;18.30;99.90
21246;DHT22;10781;50.928;4.440;2023-04-03T08:00:05;18.30;99.40
21246;DHT22;10781;50.928;4.440;2023-04-03T08:02:31;18.50;98.70
21246;DHT22;10781;50.928;4.440;2023-04-03T08:05:00;17.60;98.00
21246;DHT22;10781;50.928;4.440;2023-04-03T08:07:26;17.00;98.50
21246;DHT22;10781;50.928;4.440;2023-04-03T08:09:52;16.00;99.30
21246;DHT22;10781;50.928;4.440;2023-04-03T08:12:18;17.30;98.70
21246;DHT22;10781;50.928;4.440;2023-04-03T08:14:44;17.00;97.80
21246;DHT22;10781;50.928;4.440;2023-04-03T08:17:09;17.10;98.50
21246;DHT22;10781;50.928;4.440;2023-04-03T08:19:40;18.50;98.30
21246;DHT22;10781;50.928;4.440;2023-04-03T08:22:06;18.60;94.80
21246;DHT22;10781;50.928;4.440;2023-04-03T08:24:33;18.70;95.00
21246;DHT22;10781;50.928;4.440;2023-04-03T08:26:59;19.10;94.30
21246;DHT22;10781;50.928;4.440;2023-04-03T08:29:25;20.00;93.90
21246;DHT22;10781;50.928;4.440;2023-04-03T08:31:51;19.70;91.80
21246;DHT22;10781;50.928;4.440;2023-04-03T08:34:17;20.20;93.00
21246;DHT22;10781;50.928;4.440;2023-04-03T08:36:43;19.90;90.90
21246;DHT22;10781;50.928;4.440;2023-04-03T08:39:09;19.10;90.90
21246;DHT22;10781;50.928;4.440;2023-04-03T08:41:38;19.30;90.40
21246;DHT22;10781;50.928;4.440;2023-04-03T08:44:15;19.90;89.50
21246;DHT22;10781;50.928;4.440;2023-04-03T08:47:17;20.30;89.40
21246;DHT22;10781;50.928;4.440;2023-04-03T08:50:07;19.60;87.30
21246;DHT22;10781;50.928;4.440;2023-04-03T08:52:41;19.00;85.70
21246;DHT22;10781;50.928;4.440;2023-04-03T08:55:28;18.50;90.30
21246;DHT22;10781;50.928;4.440;2023-04-03T08:58:06;18.20;90.30
21246;DHT22;10781;50.928;4.440;2023-04-03T09:00:41;18.20;87.70
21246;DHT22;10781;50.928;4.440;2023-04-03T09:03:13;18.50;90.60
21246;DHT22;10781;50.928;4.440;2023-04-03T09:08:33;21.40;83.90
21246;DHT22;10781;50.928;4.440;2023-04-03T09:14:20;19.80;78.40
21246;DHT22;10781;50.928;4.440;2023-04-03T09:16:52;21.40;82.00
21246;DHT22;10781;50.928;4.440;2023-04-03T09:19:56;21.50;73.70
21246;DHT22;10781;50.928;4.440;2023-04-03T09:22:25;21.20;73.20
21246;DHT22;10781;50.928;4.440;2023-04-03T09:25:02;21.20;73.50
21246;DHT22;10781;50.928;4.440;2023-04-03T09:27:28;21.40;72.50
21246;DHT22;10781;50.928;4.440;2023-04-03T09:29:56;21.00;75.60
21246;DHT22;10781;50.928;4.440;2023-04-03T09:32:28;20.70;70.70
21246;DHT22;10781;50.928;4.440;2023-04-03T09:37:51;20.80;71.30
21246;DHT22;10781;50.928;4.440;2023-04-03T09:42:55;19.90;71.60
21246;DHT22;10781;50.928;4.440;2023-04-03T09:45:34;19.40;72.30
21246;DHT22;10781;50.928;4.440;2023-04-03T09:48:27;19.70;75.50
21246;DHT22;10781;50.928;4.440;2023-04-03T09:53:32;19.50;71.30
21246;DHT22;10781;50.928;4.440;2023-04-03T09:55:59;21.00;72.00
21246;DHT22;10781;50.928;4.440;2023-04-03T09:58:30;21.40;70.70
21246;DHT22;10781;50.928;4.440;2023-04-03T10:01:00;21.40;66.60
21246;DHT22;10781;50.928;4.440;2023-04-03T10:03:33;21.60;69.10
21246;DHT22;10781;50.928;4.440;2023-04-03T10:06:02;21.70;66.90
21246;DHT22;10781;50.928;4.440;2023-04-03T10:08:32;21.30;66.90
21246;DHT22;10781;50.928;4.440;2023-04-03T10:13:32;20.40;67.10
21246;DHT22;10781;50.928;4.440;2023-04-03T10:16:03;21.10;66.70
21246;DHT22;10781;50.928;4.440;2023-04-03T10:18:49;23.00;63.70
21246;DHT22;10781;50.928;4.440;2023-04-03T10:21:33;22.20;63.80
21246;DHT22;10781;50.928;4.440;2023-04-03T10:24:11;22.40;62.70
21246;DHT22;10781;50.928;4.440;2023-04-03T10:29:51;22.50;59.20
21246;DHT22;10781;50.928;4.440;2023-04-03T10:37:57;21.20;58.30
21246;DHT22;10781;50.928;4.440;2023-04-03T10:46:24;23.10;58.60
21246;DHT22;10781;50.928;4.440;2023-04-03T10:52:09;20.40;57.60
21246;DHT22;10781;50.928;4.440;2023-04-03T10:55:09;20.00;59.80
21246;DHT22;10781;50.928;4.440;2023-04-03T10:57:30;21.10;59.10
21246;DHT22;10781;50.928;4.440;2023-04-03T11:00:05;20.50;58.30
21246;DHT22;10781;50.928;4.440;2023-04-03T11:02:45;20.50;57.90
21246;DHT22;10781;50.928;4.440;2023-04-03T11:05:34;21.50;58.20
21246;DHT22;10781;50.928;4.440;2023-04-03T11:08:11;21.00;56.70
21246;DHT22;10781;50.928;4.440;2023-04-03T11:10:42;20.60;55.30
21246;DHT22;10781;50.928;4.440;2023-04-03T11:13:32;20.50;58.10
21246;DHT22;10781;50.928;4.440;2023-04-03T11:15:58;21.20;55.10
21246;DHT22;10781;50.928;4.440;2023-04-03T11:21:34;22.20;56.80
21246;DHT22;10781;50.928;4.440;2023-04-03T11:24:05;23.40;54.40
21246;DHT22;10781;50.928;4.440;2023-04-03T11:26:38;23.40;53.10
21246;DHT22;10781;50.928;4.440;2023-04-03T11:29:09;22.40;51.50
21246;DHT22;10781;50.928;4.440;2023-04-03T11:34:39;19.30;54.80
21246;DHT22;10781;50.928;4.440;2023-04-03T11:37:15;20.00;55.70
21246;DHT22;10781;50.928;4.440;2023-04-03T11:39:50;21.50;54.40
21246;DHT22;10781;50.928;4.440;2023-04-03T11:45:24;21.70;51.70
21246;DHT22;10781;50.928;4.440;2023-04-03T11:47:57;21.10;52.40
21246;DHT22;10781;50.928;4.440;2023-04-03T11:55:45;20.60;54.60
21246;DHT22;10781;50.928;4.440;2023-04-03T11:58:22;21.10;55.60
21246;DHT22;10781;50.928;4.440;2023-04-03T12:16:26;22.20;50.00
21246;DHT22;10781;50.928;4.440;2023-04-03T12:21:23;22.10;48.60
21246;DHT22;10781;50.928;4.440;2023-04-03T12:32:34;22.30;47.10
21246;DHT22;10781;50.928;4.440;2023-04-03T12:48:38;21.80;45.50
21246;DHT22;10781;50.928;4.440;2023-04-03T12:51:05;22.30;44.20
21246;DHT22;10781;50.928;4.440;2023-04-03T12:53:33;23.20;44.70
21246;DHT22;10781;50.928;4.440;2023-04-03T12:56:23;23.90;42.00
21246;DHT22;10781;50.928;4.440;2023-04-03T12:58:50;23.30;43.00
21246;DHT22;10781;50.928;4.440;2023-04-03T13:01:24;22.80;41.00
21246;DHT22;10781;50.928;4.440;2023-04-03T13:03:53;22.20;40.50
21246;DHT22;10781;50.928;4.440;2023-04-03T13:06:23;23.40;41.40
21246;DHT22;10781;50.928;4.440;2023-04-03T13:08:56;23.50;40.40
21246;DHT22;10781;50.928;4.440;2023-04-03T13:11:23;23.40;41.20
21246;DHT22;10781;50.928;4.440;2023-04-03T13:14:01;21.90;40.80
21246;DHT22;10781;50.928;4.440;2023-04-03T13:16:29;22.90;40.10
21246;DHT22;10781;50.928;4.440;2023-04-03T13:18:55;21.60;40.10
21246;DHT22;10781;50.928;4.440;2023-04-03T13:21:25;23.60;40.30
21246;DHT22;10781;50.928;4.440;2023-04-03T13:24:00;23.10;40.40
21246;DHT22;10781;50.928;4.440;2023-04-03T13:26:30;23.00;41.90
21246;DHT22;10781;50.928;4.440;2023-04-03T13:29:01;24.40;41.50
21246;DHT22;10781;50.928;4.440;2023-04-03T13:31:34;24.40;39.30
21246;DHT22;10781;50.928;4.440;2023-04-03T13:36:38;23.00;40.80
21246;DHT22;10781;50.928;4.440;2023-04-03T13:39:07;23.00;41.20
21246;DHT22;10781;50.928;4.440;2023-04-03T13:41:52;23.40;39.30
21246;DHT22;10781;50.928;4.440;2023-04-03T13:46:59;23.20;44.00
21246;DHT22;10781;50.928;4.440;2023-04-03T13:51:56;22.80;43.00
21246;DHT22;10781;50.928;4.440;2023-04-03T13:54:38;23.20;43.30
21246;DHT22;10781;50.928;4.440;2023-04-03T13:57:15;22.40;42.20
21246;DHT22;10781;50.928;4.440;2023-04-03T13:59:42;21.90;40.90
21246;DHT22;10781;50.928;4.440;2023-04-03T14:02:21;21.70;41.80
21246;DHT22;10781;50.928;4.440;2023-04-03T14:04:56;21.20;43.30
21246;DHT22;10781;50.928;4.440;2023-04-03T14:07:25;21.20;41.80
21246;DHT22;10781;50.928;4.440;2023-04-03T14:09:51;20.60;42.50
21246;DHT22;10781;50.928;4.440;2023-04-03T14:12:26;19.60;43.70
21246;DHT22;10781;50.928;4.440;2023-04-03T14:14:53;20.10;40.30
21246;DHT22;10781;50.928;4.440;2023-04-03T14:17:24;19.90;41.20
21246;DHT22;10781;50.928;4.440;2023-04-03T14:19:51;19.60;42.00
21246;DHT22;10781;50.928;4.440;2023-04-03T14:22:30;20.60;43.00
21246;DHT22;10781;50.928;4.440;2023-04-03T14:24:56;20.50;40.50
21246;DHT22;10781;50.928;4.440;2023-04-03T14:27:28;20.80;42.30
21246;DHT22;10781;50.928;4.440;2023-04-03T14:29:56;21.80;43.30
21246;DHT22;10781;50.928;4.440;2023-04-03T14:32:23;22.00;42.00
21246;DHT22;10781;50.928;4.440;2023-04-03T14:34:50;23.20;40.70
21246;DHT22;10781;50.928;4.440;2023-04-03T14:37:19;21.70;40.30
21246;DHT22;10781;50.928;4.440;2023-04-03T14:39:46;21.30;40.50
21246;DHT22;10781;50.928;4.440;2023-04-03T14:42:19;22.30;41.70
21246;DHT22;10781;50.928;4.440;2023-04-03T14:44:45;22.30;40.80
21246;DHT22;10781;50.928;4.440;2023-04-03T14:47:19;20.80;40.80
21246;DHT22;10781;50.928;4.440;2023-04-03T14:49:47;20.50;41.30
21246;DHT22;10781;50.928;4.440;2023-04-03T14:52:34;20.00;41.60
21246;DHT22;10781;50.928;4.440;2023-04-03T14:55:01;20.10;43.80
21246;DHT22;10781;50.928;4.440;2023-04-03T14:57:28;21.60;44.30
21246;DHT22;10781;50.928;4.440;2023-04-03T14:59:54;21.40;40.50
21246;DHT22;10781;50.928;4.440;2023-04-03T15:02:34;21.10;39.20
21246;DHT22;10781;50.928;4.440;2023-04-03T15:05:07;20.30;41.60
21246;DHT22;10781;50.928;4.440;2023-04-03T15:07:42;19.50;41.60
21246;DHT22;10781;50.928;4.440;2023-04-03T15:12:41;18.80;43.30
21246;DHT22;10781;50.928;4.440;2023-04-03T15:15:07;18.20;44.70
21246;DHT22;10781;50.928;4.440;2023-04-03T15:17:34;17.90;45.50
21246;DHT22;10781;50.928;4.440;2023-04-03T15:20:01;18.20;45.70
21246;DHT22;10781;50.928;4.440;2023-04-03T15:22:27;18.20;44.00
21246;DHT22;10781;50.928;4.440;2023-04-03T15:24:53;18.00;44.90
21246;DHT22;10781;50.928;4.440;2023-04-03T15:27:19;18.70;46.30
21246;DHT22;10781;50.928;4.440;2023-04-03T15:29:45;18.70;45.20
21246;DHT22;10781;50.928;4.440;2023-04-03T15:32:12;18.60;44.00
21246;DHT22;10781;50.928;4.440;2023-04-03T15:34:38;18.10;44.10
21246;DHT22;10781;50.928;4.440;2023-04-03T15:37:04;18.40;45.30
21246;DHT22;10781;50.928;4.440;2023-04-03T15:39:30;19.40;43.40
21246;DHT22;10781;50.928;4.440;2023-04-03T15:41:56;20.00;42.90
21246;DHT22;10781;50.928;4.440;2023-04-03T15:44:25;18.90;42.90
21246;DHT22;10781;50.928;4.440;2023-04-03T15:46:50;18.00;45.50
21246;DHT22;10781;50.928;4.440;2023-04-03T15:49:18;18.60;46.90
21246;DHT22;10781;50.928;4.440;2023-04-03T15:51:44;19.20;44.90
21246;DHT22;10781;50.928;4.440;2023-04-03T15:54:10;19.20;42.80
21246;DHT22;10781;50.928;4.440;2023-04-03T15:56:36;18.40;43.90
21246;DHT22;10781;50.928;4.440;2023-04-03T15:59:03;18.00;46.10
21246;DHT22;10781;50.928;4.440;2023-04-03T16:01:29;18.00;44.50
21246;DHT22;10781;50.928;4.440;2023-04-03T16:03:55;17.70;45.20
21246;DHT22;10781;50.928;4.440;2023-04-03T16:06:21;16.60;45.80
21246;DHT22;10781;50.928;4.440;2023-04-03T16:08:48;16.50;46.00
21246;DHT22;10781;50.928;4.440;2023-04-03T16:11:14;16.90;45.80
21246;DHT22;10781;50.928;4.440;2023-04-03T16:13:40;17.10;46.20
21246;DHT22;10781;50.928;4.440;2023-04-03T16:16:06;17.00;45.20
21246;DHT22;10781;50.928;4.440;2023-04-03T16:18:34;16.90;45.40
21246;DHT22;10781;50.928;4.440;2023-04-03T16:21:01;16.90;45.60
21246;DHT22;10781;50.928;4.440;2023-04-03T16:23:26;16.80;47.50
21246;DHT22;10781;50.928;4.440;2023-04-03T16:25:52;16.60;48.80
21246;DHT22;10781;50.928;4.440;2023-04-03T16:28:19;16.20;48.90
21246;DHT22;10781;50.928;4.440;2023-04-03T16:30:45;16.30;48.20
21246;DHT22;10781;50.928;4.440;2023-04-03T16:33:12;16.20;48.80
21246;DHT22;10781;50.928;4.440;2023-04-03T16:35:42;15.80;49.20
21246;DHT22;10781;50.928;4.440;2023-04-03T16:38:09;16.00;49.30
21246;DHT22;10781;50.928;4.440;2023-04-03T16:40:36;16.30;49.70
21246;DHT22;10781;50.928;4.440;2023-04-03T16:43:04;16.30;49.60
21246;DHT22;10781;50.928;4.440;2023-04-03T16:45:33;15.90;49.00
21246;DHT22;10781;50.928;4.440;2023-04-03T16:48:01;16.10;50.90
21246;DHT22;10781;50.928;4.440;2023-04-03T16:50:27;15.80;49.30
21246;DHT22;10781;50.928;4.440;2023-04-03T16:52:53;15.50;51.20
21246;DHT22;10781;50.928;4.440;2023-04-03T16:55:19;15.00;52.30
21246;DHT22;10781;50.928;4.440;2023-04-03T16:57:46;14.80;53.50
21246;DHT22;10781;50.928;4.440;2023-04-03T17:00:12;14.30;52.70
21246;DHT22;10781;50.928;4.440;2023-04-03T17:02:39;14.10;54.00
21246;DHT22;10781;50.928;4.440;2023-04-03T17:05:07;14.10;54.70
21246;DHT22;10781;50.928;4.440;2023-04-03T17:07:33;13.70;54.10
21246;DHT22;10781;50.928;4.440;2023-04-03T17:09:59;13.40;55.10
21246;DHT22;10781;50.928;4.440;2023-04-03T17:12:26;13.20;55.90
21246;DHT22;10781;50.928;4.440;2023-04-03T17:14:52;12.80;56.20
21246;DHT22;10781;50.928;4.440;2023-04-03T17:17:24;12.50;56.50
21246;DHT22;10781;50.928;4.440;2023-04-03T17:19:51;12.20;57.80
21246;DHT22;10781;50.928;4.440;2023-04-03T17:22:19;12.10;58.30
21246;DHT22;10781;50.928;4.440;2023-04-03T17:24:45;12.20;58.90
21246;DHT22;10781;50.928;4.440;2023-04-03T17:27:11;12.20;58.40